sensor_id;sensor_type;location;lat;lon;timestamp;pressure;altitude;pressure_sealevel;temperature;humidity
71109;BME280;59614;51.012;-1.648;2023-09-12T00:01:48;100483.59;;;19.81;100.00
71109;BME280;59614;51.012;-1.648;2023-09-12T00:04:13;100479.34;;;19.77;100.00
71109;BME280;59614;51.012;-1.648;2023-09-12T00:06:39;100482.88;;;19.78;100.00
71109;BME280;59614;51.012;-1.648;2023-09-12T00:09:04;100486.75;;;19.89;100.00
71109;BME280;59614;51.012;-1.648;2023-09-12T00:11:33;100484.88;;;19.92;100.00
71109;BME280;59614;51.012;-1.648;2023-09-12T00:13:59;100484.13;;;19.88;100.00
71109;BME280;59614;51.012;-1.648;2023-09-12T00:16:24;100482.09;;;19.93;100.00
71109;BME280;59614;51.012;-1.648;2023-09-12T00:18:50;100480.44;;;19.90;100.00
71109;BME280;59614;51.012;-1.648;2023-09-12T00:21:15;100487.03;;;19.83;100.00
71109;BME280;59614;51.012;-1.648;2023-09-12T00:23:41;100478.78;;;19.88;100.00
71109;BME280;59614;51.012;-1.648;2023-09-12T00:26:06;100487.34;;;19.95;100.00
71109;BME280;59614;51.012;-1.648;2023-09-12T00:28:32;100477.94;;;19.87;100.00
71109;BME280;59614;51.012;-1.648;2023-09-12T00:30:59;100487.09;;;19.99;100.00
71109;BME280;59614;51.012;-1.648;2023-09-12T00:33:24;100484.50;;;19.98;100.00
71109;BME280;59614;51.012;-1.648;2023-09-12T00:35:50;100488.75;;;19.86;100.00
71109;BME280;59614;51.012;-1.648;2023-09-12T00:38:15;100484.06;;;19.89;100.00
71109;BME280;59614;51.012;-1.648;2023-09-12T00:40:41;100480.72;;;19.84;100.00
71109;BME280;59614;51.012;-1.648;2023-09-12T00:43:06;100479.94;;;19.82;100.00
71109;BME280;59614;51.012;-1.648;2023-09-12T00:45:32;100481.69;;;19.83;100.00
71109;BME280;59614;51.012;-1.648;2023-09-12T00:47:58;100478.41;;;19.78;100.00
71109;BME280;59614;51.012;-1.648;2023-09-12T00:50:25;100475.56;;;19.81;100.00
71109;BME280;59614;51.012;-1.648;2023-09-12T00:52:53;100475.44;;;19.67;100.00
71109;BME280;59614;51.012;-1.648;2023-09-12T00:55:19;100474.25;;;19.72;100.00
71109;BME280;59614;51.012;-1.648;2023-09-12T00:57:45;100469.75;;;19.73;100.00
71109;BME280;59614;51.012;-1.648;2023-09-12T01:00:12;100464.88;;;19.64;100.00
71109;BME280;59614;51.012;-1.648;2023-09-12T01:02:41;100471.97;;;19.65;100.00
71109;BME280;59614;51.012;-1.648;2023-09-12T01:05:07;100459.69;;;19.60;100.00
71109;BME280;59614;51.012;-1.648;2023-09-12T01:07:34;100464.28;;;19.58;100.00
71109;BME280;59614;51.012;-1.648;2023-09-12T01:10:00;100464.19;;;19.60;100.00
71109;BME280;59614;51.012;-1.648;2023-09-12T01:12:25;100459.41;;;19.49;100.00
71109;BME280;59614;51.012;-1.648;2023-09-12T01:14:51;100454.84;;;19.51;100.00
71109;BME280;59614;51.012;-1.648;2023-09-12T01:17:16;100452.41;;;19.47;100.00
71109;BME280;59614;51.012;-1.648;2023-09-12T01:19:42;100452.31;;;19.48;100.00
71109;BME280;59614;51.012;-1.648;2023-09-12T01:28:05;100438.97;;;19.31;100.00
71109;BME280;59614;51.012;-1.648;2023-09-12T01:30:34;100441.00;;;19.25;100.00
71109;BME280;59614;51.012;-1.648;2023-09-12T01:33:01;100442.28;;;19.36;100.00
71109;BME280;59614;51.012;-1.648;2023-09-12T01:35:27;100435.66;;;19.25;100.00
71109;BME280;59614;51.012;-1.648;2023-09-12T01:37:53;100445.28;;;19.29;100.00
71109;BME280;59614;51.012;-1.648;2023-09-12T01:40:46;100448.66;;;19.33;100.00
71109;BME280;59614;51.012;-1.648;2023-09-12T01:43:10;100442.28;;;19.36;100.00
71109;BME280;59614;51.012;-1.648;2023-09-12T01:45:37;100453.44;;;19.44;100.00
71109;BME280;59614;51.012;-1.648;2023-09-12T01:48:04;100447.75;;;19.50;100.00
71109;BME280;59614;51.012;-1.648;2023-09-12T01:50:31;100451.22;;;19.52;100.00
71109;BME280;59614;51.012;-1.648;2023-09-12T01:52:58;100450.44;;;19.50;100.00
71109;BME280;59614;51.012;-1.648;2023-09-12T01:55:24;100450.13;;;19.56;100.00
71109;BME280;59614;51.012;-1.648;2023-09-12T01:57:50;100451.59;;;19.62;100.00
71109;BME280;59614;51.012;-1.648;2023-09-12T02:00:18;100456.06;;;19.62;100.00
71109;BME280;59614;51.012;-1.648;2023-09-12T02:02:45;100455.81;;;19.66;100.00
71109;BME280;59614;51.012;-1.648;2023-09-12T02:05:15;100461.00;;;19.69;100.00
71109;BME280;59614;51.012;-1.648;2023-09-12T02:07:43;100460.16;;;19.69;100.00
71109;BME280;59614;51.012;-1.648;2023-09-12T02:10:09;100463.59;;;19.71;100.00
71109;BME280;59614;51.012;-1.648;2023-09-12T02:12:35;100453.22;;;19.65;100.00
71109;BME280;59614;51.012;-1.648;2023-09-12T02:15:00;100457.09;;;19.59;100.00
71109;BME280;59614;51.012;-1.648;2023-09-12T02:17:26;100454.19;;;19.64;100.00
71109;BME280;59614;51.012;-1.648;2023-09-12T02:19:51;100454.69;;;19.54;100.00
71109;BME280;59614;51.012;-1.648;2023-09-12T02:22:17;100450.91;;;19.58;100.00
71109;BME280;59614;51.012;-1.648;2023-09-12T02:24:42;100450.66;;;19.63;100.00
71109;BME280;59614;51.012;-1.648;2023-09-12T02:27:07;100459.69;;;19.60;100.00
71109;BME280;59614;51.012;-1.648;2023-09-12T02:29:33;100450.97;;;19.57;100.00
71109;BME280;59614;51.012;-1.648;2023-09-12T02:31:59;100461.09;;;19.68;100.00
71109;BME280;59614;51.012;-1.648;2023-09-12T02:34:24;100457.50;;;19.69;100.00
71109;BME280;59614;51.012;-1.648;2023-09-12T02:36:50;100463.31;;;19.59;100.00
71109;BME280;59614;51.012;-1.648;2023-09-12T02:39:15;100462.72;;;19.54;100.00
71109;BME280;59614;51.012;-1.648;2023-09-12T02:41:41;100458.84;;;19.42;100.00
71109;BME280;59614;51.012;-1.648;2023-09-12T02:44:06;100456.28;;;19.41;100.00
71109;BME280;59614;51.012;-1.648;2023-09-12T02:46:32;100459.50;;;19.48;100.00
71109;BME280;59614;51.012;-1.648;2023-09-12T02:48:57;100456.91;;;19.46;100.00
71109;BME280;59614;51.012;-1.648;2023-09-12T02:51:25;100456.72;;;19.49;100.00
71109;BME280;59614;51.012;-1.648;2023-09-12T02:53:50;100459.25;;;19.52;100.00
71109;BME280;59614;51.012;-1.648;2023-09-12T02:56:16;100461.75;;;19.55;100.00
71109;BME280;59614;51.012;-1.648;2023-09-12T02:58:41;100451.75;;;19.59;100.00
71109;BME280;59614;51.012;-1.648;2023-09-12T03:01:07;100459.00;;;19.57;100.00
71109;BME280;59614;51.012;-1.648;2023-09-12T03:03:32;100453.31;;;19.63;100.00
71109;BME280;59614;51.012;-1.648;2023-09-12T03:06:01;100469.63;;;19.58;100.00
71109;BME280;59614;51.012;-1.648;2023-09-12T03:08:28;100460.88;;;19.55;100.00
71109;BME280;59614;51.012;-1.648;2023-09-12T03:10:55;100462.38;;;19.60;100.00
71109;BME280;59614;51.012;-1.648;2023-09-12T03:13:21;100462.88;;;19.51;100.00
71109;BME280;59614;51.012;-1.648;2023-09-12T03:15:46;100464.16;;;19.44;100.00
71109;BME280;59614;51.012;-1.648;2023-09-12T03:18:11;100458.94;;;19.41;100.00
71109;BME280;59614;51.012;-1.648;2023-09-12T03:20:38;100451.72;;;19.43;100.00
71109;BME280;59614;51.012;-1.648;2023-09-12T03:23:04;100458.84;;;19.42;100.00
71109;BME280;59614;51.012;-1.648;2023-09-12T03:25:29;100451.88;;;19.40;100.00
71109;BME280;59614;51.012;-1.648;2023-09-12T03:27:55;100460.03;;;19.37;100.00
71109;BME280;59614;51.012;-1.648;2023-09-12T03:30:20;100453.94;;;19.35;100.00
71109;BME280;59614;51.012;-1.648;2023-09-12T03:32:46;100458.09;;;19.40;100.00
71109;BME280;59614;51.012;-1.648;2023-09-12T03:35:11;100449.97;;;19.42;100.00
71109;BME280;59614;51.012;-1.648;2023-09-12T03:37:37;100448.09;;;19.44;100.00
71109;BME280;59614;51.012;-1.648;2023-09-12T03:40:06;100444.63;;;19.42;100.00
71109;BME280;59614;51.012;-1.648;2023-09-12T03:42:32;100448.25;;;19.41;100.00
71109;BME280;59614;51.012;-1.648;2023-09-12T03:44:57;100439.66;;;19.34;100.00
71109;BME280;59614;51.012;-1.648;2023-09-12T03:47:23;100441.91;;;19.26;100.00
71109;BME280;59614;51.012;-1.648;2023-09-12T03:49:48;100441.44;;;19.18;100.00
71109;BME280;59614;51.012;-1.648;2023-09-12T03:52:14;100438.44;;;19.24;100.00
71109;BME280;59614;51.012;-1.648;2023-09-12T03:54:40;100439.22;;;19.26;100.00
71109;BME280;59614;51.012;-1.648;2023-09-12T03:57:06;100435.59;;;19.27;100.00
71109;BME280;59614;51.012;-1.648;2023-09-12T03:59:31;100440.06;;;19.26;100.00
71109;BME280;59614;51.012;-1.648;2023-09-12T04:01:57;100435.50;;;19.28;100.00
71109;BME280;59614;51.012;-1.648;2023-09-12T04:04:22;100430.09;;;19.30;100.00
71109;BME280;59614;51.012;-1.648;2023-09-12T04:06:47;100435.59;;;19.27;100.00
71109;BME280;59614;51.012;-1.648;2023-09-12T04:09:13;100427.72;;;19.24;100.00
71109;BME280;59614;51.012;-1.648;2023-09-12T04:11:38;100431.75;;;19.15;100.00
71109;BME280;59614;51.012;-1.648;2023-09-12T04:14:04;100431.28;;;19.07;100.00
71109;BME280;59614;51.012;-1.648;2023-09-12T04:16:29;100425.47;;;18.98;100.00
71109;BME280;59614;51.012;-1.648;2023-09-12T04:18:55;100421.06;;;18.97;100.00
71109;BME280;59614;51.012;-1.648;2023-09-12T04:21:20;100417.44;;;18.98;100.00
71109;BME280;59614;51.012;-1.648;2023-09-12T04:23:45;100417.81;;;18.91;100.00
71109;BME280;59614;51.012;-1.648;2023-09-12T04:26:11;100415.13;;;18.91;100.00
71109;BME280;59614;51.012;-1.648;2023-09-12T04:28:36;100415.47;;;18.85;100.00
71109;BME280;59614;51.012;-1.648;2023-09-12T04:31:03;100415.75;;;18.78;100.00
71109;BME280;59614;51.012;-1.648;2023-09-12T04:33:28;100418.06;;;18.68;100.00
71109;BME280;59614;51.012;-1.648;2023-09-12T04:35:57;100416.47;;;18.64;100.00
71109;BME280;59614;51.012;-1.648;2023-09-12T04:38:22;100408.84;;;18.57;100.00
71109;BME280;59614;51.012;-1.648;2023-09-12T04:40:56;100415.06;;;18.57;100.00
71109;BME280;59614;51.012;-1.648;2023-09-12T04:43:22;100416.94;;;18.55;100.00
71109;BME280;59614;51.012;-1.648;2023-09-12T04:45:48;100415.81;;;18.42;100.00
71109;BME280;59614;51.012;-1.648;2023-09-12T04:48:13;100407.88;;;18.40;100.00
71109;BME280;59614;51.012;-1.648;2023-09-12T04:50:42;100416.28;;;18.50;100.00
71109;BME280;59614;51.012;-1.648;2023-09-12T04:53:08;100413.84;;;18.45;100.00
71109;BME280;59614;51.012;-1.648;2023-09-12T04:55:35;100416.09;;;18.35;100.00
71109;BME280;59614;51.012;-1.648;2023-09-12T04:58:01;100417.06;;;18.34;100.00
71109;BME280;59614;51.012;-1.648;2023-09-12T05:00:26;100426.97;;;18.32;100.00
71109;BME280;59614;51.012;-1.648;2023-09-12T05:02:52;100421.38;;;18.37;100.00
71109;BME280;59614;51.012;-1.648;2023-09-12T05:05:17;100418.72;;;18.37;100.00
71109;BME280;59614;51.012;-1.648;2023-09-12T05:07:42;100426.25;;;18.29;100.00
71109;BME280;59614;51.012;-1.648;2023-09-12T05:10:08;100425.69;;;18.22;100.00
71109;BME280;59614;51.012;-1.648;2023-09-12T05:12:33;100422.06;;;18.23;100.00
71109;BME280;59614;51.012;-1.648;2023-09-12T05:14:59;100425.91;;;18.17;100.00
71109;BME280;59614;51.012;-1.648;2023-09-12T05:17:24;100424.50;;;18.28;100.00
71109;BME280;59614;51.012;-1.648;2023-09-12T05:19:50;100424.19;;;18.34;100.00
71109;BME280;59614;51.012;-1.648;2023-09-12T05:22:15;100426.78;;;18.35;100.00
71109;BME280;59614;51.012;-1.648;2023-09-12T05:24:41;100433.72;;;18.40;100.00
71109;BME280;59614;51.012;-1.648;2023-09-12T05:27:06;100436.03;;;18.47;100.00
71109;BME280;59614;51.012;-1.648;2023-09-12T05:29:32;100430.69;;;18.47;100.00
71109;BME280;59614;51.012;-1.648;2023-09-12T05:31:57;100436.09;;;18.46;100.00
71109;BME280;59614;51.012;-1.648;2023-09-12T05:34:22;100429.41;;;18.37;100.00
71109;BME280;59614;51.012;-1.648;2023-09-12T05:36:48;100441.72;;;18.40;100.00
71109;BME280;59614;51.012;-1.648;2023-09-12T05:39:13;100431.97;;;18.39;100.00
71109;BME280;59614;51.012;-1.648;2023-09-12T05:41:39;100436.16;;;18.44;100.00
71109;BME280;59614;51.012;-1.648;2023-09-12T05:44:05;100433.72;;;18.40;100.00
71109;BME280;59614;51.012;-1.648;2023-09-12T05:46:30;100438.03;;;18.42;100.00
71109;BME280;59614;51.012;-1.648;2023-09-12T05:48:55;100435.00;;;18.50;100.00
71109;BME280;59614;51.012;-1.648;2023-09-12T05:51:21;100441.03;;;18.53;100.00
71109;BME280;59614;51.012;-1.648;2023-09-12T05:53:46;100446.34;;;18.55;100.00
71109;BME280;59614;51.012;-1.648;2023-09-12T05:56:12;100444.22;;;18.62;100.00
71109;BME280;59614;51.012;-1.648;2023-09-12T05:58:37;100447.59;;;18.65;100.00
71109;BME280;59614;51.012;-1.648;2023-09-12T06:01:07;100446.44;;;18.71;100.00
71109;BME280;59614;51.012;-1.648;2023-09-12T06:03:33;100451.31;;;18.63;100.00
71109;BME280;59614;51.012;-1.648;2023-09-12T06:05:58;100440.53;;;18.64;100.00
71109;BME280;59614;51.012;-1.648;2023-09-12T06:08:24;100441.31;;;18.66;100.00
71109;BME280;59614;51.012;-1.648;2023-09-12T06:10:49;100448.56;;;18.64;100.00
71109;BME280;59614;51.012;-1.648;2023-09-12T06:13:19;100453.66;;;18.69;100.00
71109;BME280;59614;51.012;-1.648;2023-09-12T06:15:44;100454.19;;;18.58;100.00
71109;BME280;59614;51.012;-1.648;2023-09-12T06:18:10;100460.03;;;18.66;100.00
71109;BME280;59614;51.012;-1.648;2023-09-12T06:20:35;100458.50;;;18.80;100.00
71109;BME280;59614;51.012;-1.648;2023-09-12T06:23:01;100455.13;;;18.94;100.00
71109;BME280;59614;51.012;-1.648;2023-09-12T06:25:26;100457.41;;;19.02;100.00
71109;BME280;59614;51.012;-1.648;2023-09-12T06:27:54;100457.59;;;18.79;100.00
71109;BME280;59614;51.012;-1.648;2023-09-12T06:30:19;100462.06;;;18.61;100.00
71109;BME280;59614;51.012;-1.648;2023-09-12T06:32:44;100459.66;;;18.92;100.00
71109;BME280;59614;51.012;-1.648;2023-09-12T06:35:10;100463.16;;;19.11;100.00
71109;BME280;59614;51.012;-1.648;2023-09-12T06:37:37;100456.06;;;19.10;100.00
71109;BME280;59614;51.012;-1.648;2023-09-12T06:40:03;100456.00;;;18.94;100.00
71109;BME280;59614;51.012;-1.648;2023-09-12T06:42:29;100464.31;;;19.06;100.00
71109;BME280;59614;51.012;-1.648;2023-09-12T06:44:54;100461.59;;;19.07;100.00
71109;BME280;59614;51.012;-1.648;2023-09-12T06:47:20;100463.78;;;19.17;100.00
71109;BME280;59614;51.012;-1.648;2023-09-12T06:49:45;100459.22;;;19.19;100.00
71109;BME280;59614;51.012;-1.648;2023-09-12T06:52:10;100466.78;;;19.28;100.00
71109;BME280;59614;51.012;-1.648;2023-09-12T06:54:36;100472.97;;;19.46;100.00
71109;BME280;59614;51.012;-1.648;2023-09-12T06:57:01;100470.34;;;19.44;100.00
71109;BME280;59614;51.012;-1.648;2023-09-12T06:59:27;100468.31;;;19.50;100.00
71109;BME280;59614;51.012;-1.648;2023-09-12T07:01:52;100469.13;;;18.99;100.00
71109;BME280;59614;51.012;-1.648;2023-09-12T07:04:18;100478.38;;;18.92;100.00
71109;BME280;59614;51.012;-1.648;2023-09-12T07:06:43;100473.16;;;19.08;100.00
71109;BME280;59614;51.012;-1.648;2023-09-12T07:09:09;100476.13;;;19.19;100.00
71109;BME280;59614;51.012;-1.648;2023-09-12T07:11:36;100473.28;;;19.05;100.00
71109;BME280;59614;51.012;-1.648;2023-09-12T07:14:02;100479.13;;;19.13;100.00
71109;BME280;59614;51.012;-1.648;2023-09-12T07:16:30;100473.56;;;18.81;100.00
71109;BME280;59614;51.012;-1.648;2023-09-12T07:18:56;100471.25;;;19.10;100.00
71109;BME280;59614;51.012;-1.648;2023-09-12T07:21:22;100479.25;;;19.27;100.00
71109;BME280;59614;51.012;-1.648;2023-09-12T07:23:48;100474.84;;;19.26;100.00
71109;BME280;59614;51.012;-1.648;2023-09-12T07:26:14;100475.34;;;19.17;100.00
71109;BME280;59614;51.012;-1.648;2023-09-12T07:28:40;100485.66;;;18.71;100.00
71109;BME280;59614;51.012;-1.648;2023-09-12T07:31:05;100491.59;;;18.58;100.00
71109;BME280;59614;51.012;-1.648;2023-09-12T07:33:32;100488.38;;;18.88;100.00
71109;BME280;59614;51.012;-1.648;2023-09-12T07:35:58;100487.28;;;19.27;100.00
71109;BME280;59614;51.012;-1.648;2023-09-12T07:38:25;100487.34;;;19.61;100.00
71109;BME280;59614;51.012;-1.648;2023-09-12T07:40:50;100488.84;;;19.49;100.00
71109;BME280;59614;51.012;-1.648;2023-09-12T07:43:16;100492.00;;;19.57;100.00
71109;BME280;59614;51.012;-1.648;2023-09-12T07:45:42;100502.25;;;19.83;100.00
71109;BME280;59614;51.012;-1.648;2023-09-12T07:48:09;100495.22;;;19.98;100.00
71109;BME280;59614;51.012;-1.648;2023-09-12T07:50:36;100500.16;;;20.05;100.00
71109;BME280;59614;51.012;-1.648;2023-09-12T07:53:04;100504.41;;;20.10;100.00
71109;BME280;59614;51.012;-1.648;2023-09-12T07:55:30;100501.28;;;20.17;100.00
71109;BME280;59614;51.012;-1.648;2023-09-12T07:57:59;100506.59;;;20.35;100.00
71109;BME280;59614;51.012;-1.648;2023-09-12T08:00:25;100501.13;;;20.20;100.00
71109;BME280;59614;51.012;-1.648;2023-09-12T08:02:50;100502.16;;;20.18;100.00
71109;BME280;59614;51.012;-1.648;2023-09-12T08:05:16;100500.59;;;20.46;100.00
71109;BME280;59614;51.012;-1.648;2023-09-12T08:07:41;100498.34;;;20.38;100.00
71109;BME280;59614;51.012;-1.648;2023-09-12T08:10:07;100507.28;;;20.55;100.00
71109;BME280;59614;51.012;-1.648;2023-09-12T08:12:33;100500.59;;;20.62;100.00
71109;BME280;59614;51.012;-1.648;2023-09-12T08:14:58;100502.94;;;20.68;100.00
71109;BME280;59614;51.012;-1.648;2023-09-12T08:17:25;100511.84;;;20.68;100.00
71109;BME280;59614;51.012;-1.648;2023-09-12T08:19:51;100504.66;;;20.69;100.00
71109;BME280;59614;51.012;-1.648;2023-09-12T08:22:16;100510.81;;;20.55;100.00
71109;BME280;59614;51.012;-1.648;2023-09-12T08:24:42;100513.06;;;20.63;100.00
71109;BME280;59614;51.012;-1.648;2023-09-12T08:27:07;100516.63;;;20.63;100.00
71109;BME280;59614;51.012;-1.648;2023-09-12T08:29:34;100516.06;;;20.73;100.00
71109;BME280;59614;51.012;-1.648;2023-09-12T08:32:00;100511.31;;;20.78;100.00
71109;BME280;59614;51.012;-1.648;2023-09-12T08:34:26;100520.50;;;20.90;100.00
71109;BME280;59614;51.012;-1.648;2023-09-12T08:36:52;100522.75;;;20.97;100.00
71109;BME280;59614;51.012;-1.648;2023-09-12T08:39:23;100523.41;;;21.01;100.00
71109;BME280;59614;51.012;-1.648;2023-09-12T08:41:50;100522.03;;;21.10;100.00
71109;BME280;59614;51.012;-1.648;2023-09-12T08:44:15;100521.50;;;21.03;100.00
71109;BME280;59614;51.012;-1.648;2023-09-12T08:46:42;100521.91;;;21.11;100.00
71109;BME280;59614;51.012;-1.648;2023-09-12T08:49:08;100523.91;;;21.08;100.00
71109;BME280;59614;51.012;-1.648;2023-09-12T08:51:37;100513.69;;;21.14;100.00
71109;BME280;59614;51.012;-1.648;2023-09-12T08:54:02;100525.88;;;20.90;100.00
71109;BME280;59614;51.012;-1.648;2023-09-12T08:56:31;100517.34;;;21.13;100.00
71109;BME280;59614;51.012;-1.648;2023-09-12T08:58:58;100516.44;;;21.13;100.00
71109;BME280;59614;51.012;-1.648;2023-09-12T09:01:24;100520.97;;;21.12;100.00
71109;BME280;59614;51.012;-1.648;2023-09-12T09:03:53;100514.09;;;21.23;100.00
71109;BME280;59614;51.012;-1.648;2023-09-12T09:06:19;100509.69;;;21.22;100.00
71109;BME280;59614;51.012;-1.648;2023-09-12T09:08:48;100505.31;;;21.35;100.00
71109;BME280;59614;51.012;-1.648;2023-09-12T09:11:13;100511.06;;;21.43;100.00
71109;BME280;59614;51.012;-1.648;2023-09-12T09:13:39;100510.72;;;21.50;100.00
71109;BME280;59614;51.012;-1.648;2023-09-12T09:16:14;100517.03;;;21.49;100.00
71109;BME280;59614;51.012;-1.648;2023-09-12T09:18:59;100508.84;;;21.36;99.47
71109;BME280;59614;51.012;-1.648;2023-09-12T09:21:30;100514.53;;;21.45;100.00
71109;BME280;59614;51.012;-1.648;2023-09-12T09:23:59;100512.03;;;21.42;100.00
71109;BME280;59614;51.012;-1.648;2023-09-12T09:26:25;100517.88;;;21.49;100.00
71109;BME280;59614;51.012;-1.648;2023-09-12T09:31:28;100509.38;;;21.57;100.00
71109;BME280;59614;51.012;-1.648;2023-09-12T09:33:54;100508.09;;;21.48;99.91
71109;BME280;59614;51.012;-1.648;2023-09-12T09:36:20;100508.38;;;21.43;100.00
71109;BME280;59614;51.012;-1.648;2023-09-12T09:38:46;100516.06;;;21.50;100.00
71109;BME280;59614;51.012;-1.648;2023-09-12T09:41:11;100510.31;;;21.56;100.00
71109;BME280;59614;51.012;-1.648;2023-09-12T09:43:37;100508.03;;;21.50;100.00
71109;BME280;59614;51.012;-1.648;2023-09-12T09:46:02;100508.47;;;21.42;100.00
71109;BME280;59614;51.012;-1.648;2023-09-12T09:48:28;100503.13;;;21.56;100.00
71109;BME280;59614;51.012;-1.648;2023-09-12T09:51:02;100507.88;;;21.82;100.00
71109;BME280;59614;51.012;-1.648;2023-09-12T09:53:31;100507.47;;;21.88;98.46
71109;BME280;59614;51.012;-1.648;2023-09-12T09:58:32;100503.66;;;21.92;97.25
71109;BME280;59614;51.012;-1.648;2023-09-12T10:01:00;100491.72;;;22.11;97.31
71109;BME280;59614;51.012;-1.648;2023-09-12T10:03:26;100496.44;;;22.07;95.60
71109;BME280;59614;51.012;-1.648;2023-09-12T10:05:55;100507.00;;;22.10;96.05
71109;BME280;59614;51.012;-1.648;2023-09-12T10:08:23;100501.53;;;22.12;95.91
71109;BME280;59614;51.012;-1.648;2023-09-12T10:10:51;100496.91;;;22.14;95.44
71109;BME280;59614;51.012;-1.648;2023-09-12T10:13:18;100496.91;;;22.14;93.88
71109;BME280;59614;51.012;-1.648;2023-09-12T10:15:44;100503.13;;;22.29;95.35
71109;BME280;59614;51.012;-1.648;2023-09-12T10:18:16;100497.69;;;22.16;92.52
71109;BME280;59614;51.012;-1.648;2023-09-12T10:20:57;100494.22;;;22.28;93.56
71109;BME280;59614;51.012;-1.648;2023-09-12T10:23:29;100503.97;;;22.29;93.61
71109;BME280;59614;51.012;-1.648;2023-09-12T10:25:57;100504.19;;;22.41;93.08
71109;BME280;59614;51.012;-1.648;2023-09-12T10:28:24;100509.56;;;22.41;90.53
71109;BME280;59614;51.012;-1.648;2023-09-12T10:30:51;100507.63;;;22.43;90.61
71109;BME280;59614;51.012;-1.648;2023-09-12T10:33:18;100501.88;;;22.49;90.27
71109;BME280;59614;51.012;-1.648;2023-09-12T10:35:44;100500.38;;;22.58;90.65
71109;BME280;59614;51.012;-1.648;2023-09-12T10:38:11;100492.84;;;22.50;87.55
71109;BME280;59614;51.012;-1.648;2023-09-12T10:40:40;100489.97;;;22.93;86.27
71109;BME280;59614;51.012;-1.648;2023-09-12T10:43:06;100489.31;;;23.69;84.50
71109;BME280;59614;51.012;-1.648;2023-09-12T10:45:35;100495.75;;;24.18;82.57
71109;BME280;59614;51.012;-1.648;2023-09-12T10:48:02;100491.69;;;24.49;81.78
71109;BME280;59614;51.012;-1.648;2023-09-12T10:50:28;100489.25;;;24.58;78.31
71109;BME280;59614;51.012;-1.648;2023-09-12T10:52:54;100486.72;;;24.43;77.01
71109;BME280;59614;51.012;-1.648;2023-09-12T10:55:19;100478.88;;;23.64;81.22
71109;BME280;59614;51.012;-1.648;2023-09-12T10:58:07;100484.78;;;23.82;81.97
71109;BME280;59614;51.012;-1.648;2023-09-12T11:00:33;100478.22;;;23.99;82.40
71109;BME280;59614;51.012;-1.648;2023-09-12T11:03:35;100479.06;;;24.13;80.36
71109;BME280;59614;51.012;-1.648;2023-09-12T11:05:52;100484.47;;;24.00;78.92
71109;BME280;59614;51.012;-1.648;2023-09-12T11:08:18;100485.53;;;24.10;80.85
71109;BME280;59614;51.012;-1.648;2023-09-12T11:10:44;100483.28;;;23.78;80.64
71109;BME280;59614;51.012;-1.648;2023-09-12T11:13:17;100482.63;;;23.49;82.95
71109;BME280;59614;51.012;-1.648;2023-09-12T11:16:14;100482.22;;;23.29;84.53
71109;BME280;59614;51.012;-1.648;2023-09-12T11:19:17;100487.72;;;23.27;84.74
71109;BME280;59614;51.012;-1.648;2023-09-12T11:21:49;100486.94;;;22.85;83.62
71109;BME280;59614;51.012;-1.648;2023-09-12T11:24:16;100484.97;;;22.74;86.30
71109;BME280;59614;51.012;-1.648;2023-09-12T11:27:01;100489.78;;;22.69;85.58
71109;BME280;59614;51.012;-1.648;2023-09-12T11:29:35;100494.88;;;22.74;87.97
71109;BME280;59614;51.012;-1.648;2023-09-12T11:32:02;100489.78;;;22.69;88.69
71109;BME280;59614;51.012;-1.648;2023-09-12T11:34:37;100485.94;;;22.46;89.55
71109;BME280;59614;51.012;-1.648;2023-09-12T11:37:03;100499.56;;;22.43;86.94
71109;BME280;59614;51.012;-1.648;2023-09-12T11:39:31;100499.00;;;22.37;88.49
71109;BME280;59614;51.012;-1.648;2023-09-12T11:41:59;100502.72;;;22.35;88.51
71109;BME280;59614;51.012;-1.648;2023-09-12T11:44:25;100494.00;;;22.31;87.40
71109;BME280;59614;51.012;-1.648;2023-09-12T11:46:55;100498.78;;;22.41;88.31
71109;BME280;59614;51.012;-1.648;2023-09-12T11:49:23;100496.28;;;22.52;88.29
71109;BME280;59614;51.012;-1.648;2023-09-12T11:51:53;100488.97;;;22.54;88.64
71109;BME280;59614;51.012;-1.648;2023-09-12T11:54:20;100495.16;;;22.42;87.01
71109;BME280;59614;51.012;-1.648;2023-09-12T11:56:47;100490.16;;;22.50;86.89
71109;BME280;59614;51.012;-1.648;2023-09-12T11:59:13;100490.09;;;22.64;86.65
71109;BME280;59614;51.012;-1.648;2023-09-12T12:01:39;100488.25;;;22.92;88.38
71109;BME280;59614;51.012;-1.648;2023-09-12T12:04:04;100491.31;;;23.13;87.34
71109;BME280;59614;51.012;-1.648;2023-09-12T12:06:32;100492.38;;;23.11;85.91
71109;BME280;59614;51.012;-1.648;2023-09-12T12:08:58;100492.38;;;23.11;84.72
71109;BME280;59614;51.012;-1.648;2023-09-12T12:11:27;100487.28;;;23.21;85.94
71109;BME280;59614;51.012;-1.648;2023-09-12T12:13:53;100483.13;;;23.15;86.09
71109;BME280;59614;51.012;-1.648;2023-09-12T12:16:18;100491.38;;;23.39;86.24
71109;BME280;59614;51.012;-1.648;2023-09-12T12:18:44;100489.97;;;23.21;82.90
71109;BME280;59614;51.012;-1.648;2023-09-12T12:21:10;100485.38;;;23.08;84.16
71109;BME280;59614;51.012;-1.648;2023-09-12T12:23:35;100481.25;;;23.43;83.50
71109;BME280;59614;51.012;-1.648;2023-09-12T12:26:10;100488.47;;;23.42;84.04
71109;BME280;59614;51.012;-1.648;2023-09-12T12:28:36;100480.16;;;23.33;81.40
71109;BME280;59614;51.012;-1.648;2023-09-12T12:31:01;100487.72;;;23.27;81.86
71109;BME280;59614;51.012;-1.648;2023-09-12T12:33:27;100481.56;;;23.25;82.88
71109;BME280;59614;51.012;-1.648;2023-09-12T12:36:18;100482.25;;;23.14;83.91
71109;BME280;59614;51.012;-1.648;2023-09-12T12:38:46;100485.22;;;23.24;82.69
71109;BME280;59614;51.012;-1.648;2023-09-12T12:41:17;100485.22;;;23.24;83.37
71109;BME280;59614;51.012;-1.648;2023-09-12T12:43:49;100492.38;;;23.11;80.41